Latest Weather Observations for Hay Point

IDQ60801

Issued at 10:05 am EST Thursday 24 July 2014 (issued every 30 minutes, with the page automatically refreshed every 10 minutes)

About weather observations | Map of weather stations | Latest weather observations for QLD | Other Formats
Station Details ID: 033317 Name: HAY POINT Lat: -21.29 Lon: 149.30 Height: 7.0 m
Data from the previous 72 hours. | See also: Recent months for locations in Queensland
Date/Time
EST
Temp
°C
App
Temp
°C
Dew
Point
Rel
Hum
%
Delta-T
°C
Wind Press
QNH
hPa
Press
MSL
hPa
Rain
since 9 am
mm
Dir
 
Spd
km/h
Gust
km/h
Spd
kts
Gust
kts
24/10:00am - - - - - S 24 30 13 16 - - -
24/09:30am - - - - - S 20 26 11 14 - - -
24/09:00am - - - - - S 20 26 11 14 - - -
24/08:30am - - - - - S 22 28 12 15 - - -
24/08:00am - - - - - S 20 28 11 15 - - -
24/07:30am - - - - - S 22 30 12 16 - - -
24/07:00am - - - - - SSW 24 32 13 17 - - -
24/06:30am - - - - - S 20 28 11 15 - - -
24/06:00am - - - - - S 19 26 10 14 - - -
24/05:30am - - - - - S 22 28 12 15 - - -
24/05:00am - - - - - SSW 22 28 12 15 - - -
24/04:30am - - - - - SSW 15 17 8 9 - - -
24/04:00am - - - - - SSW 17 22 9 12 - - -
24/03:30am - - - - - SSW 13 17 7 9 - - -
24/03:00am - - - - - SW 11 15 6 8 - - -
24/02:30am - - - - - SSW 15 17 8 9 - - -
24/02:00am - - - - - SSW 13 17 7 9 - - -
24/01:30am - - - - - SSW 15 19 8 10 - - -
24/01:00am - - - - - SSW 15 19 8 10 - - -
24/12:30am - - - - - SSW 15 17 8 9 - - -
24/12:00am - - - - - SW 13 15 7 8 - - -
 
Date/Time
EST
Temp
°C
App
Temp
°C
Dew
Point
Rel
Hum
%
Delta-T
°C
Wind Press
QNH
hPa
Press
MSL
hPa
Rain
since 9 am
mm
Dir
 
Spd
km/h
Gust
km/h
Spd
kts
Gust
kts
23/11:30pm - - - - - SSW 13 15 7 8 - - -
23/11:00pm - - - - - SSW 11 13 6 7 - - -
23/10:30pm - - - - - SSW 13 17 7 9 - - -
23/10:00pm - - - - - SSW 11 13 6 7 - - -
23/09:30pm - - - - - SSE 15 17 8 9 - - -
23/09:00pm - - - - - SE 13 17 7 9 - - -
23/08:30pm - - - - - SE 15 19 8 10 - - -
23/08:00pm - - - - - SE 19 20 10 11 - - -
23/07:30pm - - - - - SE 19 26 10 14 - - -
23/07:00pm - - - - - SE 19 26 10 14 - - -
23/06:30pm - - - - - SSE 15 19 8 10 - - -
23/06:00pm - - - - - SSE 20 24 11 13 - - -
23/05:30pm - - - - - S 22 28 12 15 - - -
23/05:00pm - - - - - S 22 26 12 14 - - -
23/04:30pm - - - - - SSE 22 28 12 15 - - -
23/04:00pm - - - - - SSE 24 30 13 16 - - -
23/03:30pm - - - - - SSE 26 32 14 17 - - -
23/03:00pm - - - - - SSE 30 33 16 18 - - -
23/02:30pm - - - - - S 26 32 14 17 - - -
23/02:00pm - - - - - S 30 35 16 19 - - -
23/01:30pm - - - - - S 30 33 16 18 - - -
23/01:00pm - - - - - S 30 33 16 18 - - -
23/12:30pm - - - - - S 30 32 16 17 - - -
23/12:00pm - - - - - SSE 26 30 14 16 - - -
23/11:30am - - - - - S 26 28 14 15 - - -
23/11:00am - - - - - S 20 24 11 13 - - -
23/10:30am - - - - - S 17 20 9 11 - - -
23/10:00am - - - - - S 17 22 9 12 - - -
23/09:30am - - - - - S 19 22 10 12 - - -
23/09:00am - - - - - SSW 17 20 9 11 - - -
23/08:30am - - - - - SSW 13 15 7 8 - - -
23/08:00am - - - - - SW 13 15 7 8 - - -
23/07:30am - - - - - SW 9 11 5 6 - - -
23/07:00am - - - - - NW 6 7 3 4 - - -
23/06:30am - - - - - WSW 6 7 3 4 - - -
23/06:00am - - - - - WSW 9 9 5 5 - - -
23/05:30am - - - - - WSW 2 7 1 4 - - -
23/05:00am - - - - - W 7 9 4 5 - - -
23/04:30am - - - - - WSW 9 11 5 6 - - -
23/04:00am - - - - - W 6 9 3 5 - - -
23/03:30am - - - - - W 9 11 5 6 - - -
23/03:00am - - - - - WSW 9 11 5 6 - - -
23/02:30am - - - - - SW 9 11 5 6 - - -
23/02:00am - - - - - WSW 11 15 6 8 - - -
23/01:30am - - - - - WSW 13 15 7 8 - - -
23/01:00am - - - - - WSW 11 13 6 7 - - -
23/12:30am - - - - - WSW 9 11 5 6 - - -
23/12:00am - - - - - SW 9 11 5 6 - - -
 
Date/Time
EST
Temp
°C
App
Temp
°C
Dew
Point
Rel
Hum
%
Delta-T
°C
Wind Press
QNH
hPa
Press
MSL
hPa
Rain
since 9 am
mm
Dir
 
Spd
km/h
Gust
km/h
Spd
kts
Gust
kts
22/11:30pm - - - - - SW 9 11 5 6 - - -
22/11:00pm - - - - - WSW 11 13 6 7 - - -
22/10:30pm - - - - - WSW 13 13 7 7 - - -
22/10:00pm - - - - - SW 11 13 6 7 - - -
22/09:30pm - - - - - SW 7 9 4 5 - - -
22/09:00pm - - - - - SW 7 9 4 5 - - -
22/08:30pm - - - - - SW 7 7 4 4 - - -
22/08:00pm - - - - - SW 7 9 4 5 - - -
22/07:30pm - - - - - SW 7 9 4 5 - - -
22/07:00pm - - - - - CALM 0 0 0 0 - - -
22/06:30pm - - - - - ESE 7 9 4 5 - - -
22/06:00pm - - - - - ESE 6 7 3 4 - - -
22/05:30pm - - - - - E 9 11 5 6 - - -
22/05:00pm - - - - - E 13 15 7 8 - - -
22/04:30pm - - - - - ESE 17 19 9 10 - - -
22/04:00pm - - - - - E 19 22 10 12 - - -
22/03:30pm - - - - - E 24 28 13 15 - - -
22/03:00pm - - - - - E 24 28 13 15 - - -
22/02:30pm - - - - - E 24 28 13 15 - - -
22/02:00pm - - - - - E 19 22 10 12 - - -
22/01:30pm - - - - - ESE 17 22 9 12 - - -
22/01:00pm - - - - - SE 19 24 10 13 - - -
22/12:30pm - - - - - SSE 17 22 9 12 - - -
22/12:00pm - - - - - SE 15 19 8 10 - - -
22/11:30am - - - - - SSE 19 20 10 11 - - -
22/11:00am - - - - - SSE 20 24 11 13 - - -
22/10:30am - - - - - S 15 20 8 11 - - -
22/10:00am - - - - - S 19 24 10 13 - - -
22/09:30am - - - - - S 13 17 7 9 - - -
22/09:00am - - - - - SSW 9 11 5 6 - - -
22/08:30am - - - - - SSW 11 13 6 7 - - -
22/08:00am - - - - - WSW 9 11 5 6 - - -
22/07:30am - - - - - WSW 7 9 4 5 - - -
22/07:00am - - - - - SW 7 7 4 4 - - -
22/06:30am - - - - - SW 9 9 5 5 - - -
22/06:00am - - - - - CALM 0 0 0 0 - - -
22/05:30am - - - - - SW 7 7 4 4 - - -
22/05:00am - - - - - SW 9 11 5 6 - - -
22/04:30am - - - - - WSW 9 9 5 5 - - -
22/04:00am - - - - - WSW 13 15 7 8 - - -
22/03:30am - - - - - W 11 13 6 7 - - -
22/03:00am - - - - - W 9 11 5 6 - - -
22/02:30am - - - - - W 7 7 4 4 - - -
22/02:00am - - - - - W 7 11 4 6 - - -
22/01:30am - - - - - W 6 9 3 5 - - -
22/01:00am - - - - - SW 9 11 5 6 - - -
22/12:30am - - - - - SW 9 11 5 6 - - -
22/12:00am - - - - - WSW 11 13 6 7 - - -
 
Date/Time
EST
Temp
°C
App
Temp
°C
Dew
Point
Rel
Hum
%
Delta-T
°C
Wind Press
QNH
hPa
Press
MSL
hPa
Rain
since 9 am
mm
Dir
 
Spd
km/h
Gust
km/h
Spd
kts
Gust
kts
21/11:30pm - - - - - WSW 11 13 6 7 - - -
21/11:00pm - - - - - SW 9 11 5 6 - - -
21/10:30pm - - - - - SW 9 11 5 6 - - -
21/10:00pm - - - - - SW 9 11 5 6 - - -
21/09:30pm - - - - - SW 9 11 5 6 - - -
21/09:00pm - - - - - SW 9 11 5 6 - - -
21/08:30pm - - - - - SSE 9 11 5 6 - - -
21/08:00pm - - - - - E 15 17 8 9 - - -
21/07:30pm - - - - - E 17 19 9 10 - - -
21/07:00pm - - - - - E 17 20 9 11 - - -
21/06:30pm - - - - - E 19 22 10 12 - - -
21/06:00pm - - - - - E 20 26 11 14 - - -
21/05:30pm - - - - - ESE 20 24 11 13 - - -
21/05:00pm - - - - - E 20 24 11 13 - - -
21/04:30pm - - - - - ESE 17 20 9 11 - - -
21/04:00pm - - - - - SE 13 17 7 9 - - -
21/03:30pm - - - - - ESE 15 19 8 10 - - -
21/03:00pm - - - - - SE 15 19 8 10 - - -
21/02:30pm - - - - - SSE 13 17 7 9 - - -
21/02:00pm - - - - - SSE 11 15 6 8 - - -
21/01:30pm - - - - - SSE 11 13 6 7 - - -
21/01:00pm - - - - - SSE 11 13 6 7 - - -
21/12:30pm - - - - - SE 11 13 6 7 - - -
21/12:00pm - - - - - SE 9 11 5 6 - - -
21/11:30am - - - - - SSE 15 17 8 9 - - -
21/11:00am - - - - - SSE 13 15 7 8 - - -
21/10:30am - - - - - SSE 15 17 8 9 - - -

Other Formats:

Comma delimited format used in spreadsheet applications
http://www.bom.gov.au/fwo/IDQ60801/IDQ60801.99367.axf

JavaScript Object Notation format (JSON) in row-major order
http://www.bom.gov.au/fwo/IDQ60801/IDQ60801.99367.json